createdAt,value
2023-03-22T00:00:38.672Z,7.00
2023-03-22T00:01:23.936Z,6.93
2023-03-22T00:02:05.873Z,6.65
2023-03-22T00:02:49.788Z,6.78
2023-03-22T00:03:34.878Z,6.70
2023-03-22T00:04:16.996Z,8.00
2023-03-22T00:04:58.778Z,7.20
2023-03-22T00:05:42.805Z,7.03
2023-03-22T00:06:25.093Z,7.63
2023-03-22T00:07:06.841Z,7.70
2023-03-22T00:07:54.206Z,7.95
2023-03-22T00:08:36.053Z,7.60
2023-03-22T00:09:18.214Z,7.30
2023-03-22T00:10:00.247Z,8.20
2023-03-22T00:10:42.307Z,8.05
2023-03-22T00:11:25.859Z,7.00
2023-03-22T00:12:10.225Z,7.20
2023-03-22T00:12:55.094Z,7.40
2023-03-22T00:13:37.446Z,7.50
2023-03-22T00:14:20.563Z,8.00
2023-03-22T00:15:02.537Z,8.02
2023-03-22T00:15:47.997Z,7.63
2023-03-22T00:16:29.955Z,8.40
2023-03-22T00:17:11.941Z,8.00
2023-03-22T00:17:54.089Z,7.60
2023-03-22T00:18:35.962Z,7.40
2023-03-22T00:19:20.181Z,7.60
2023-03-22T00:20:06.122Z,7.82
2023-03-22T00:20:53.918Z,8.10
2023-03-22T00:21:35.995Z,7.40
2023-03-22T00:22:20.094Z,7.70
2023-03-22T00:23:01.922Z,8.52
2023-03-22T00:23:46.797Z,8.40
2023-03-22T00:24:28.684Z,7.78
2023-03-22T00:25:11.049Z,8.70
2023-03-22T00:25:55.037Z,7.70
2023-03-22T00:26:37.348Z,7.95
2023-03-22T00:27:19.507Z,8.30
2023-03-22T00:28:01.501Z,8.70
2023-03-22T00:28:44.059Z,8.55
2023-03-22T00:29:26.020Z,8.20
2023-03-22T00:30:09.220Z,8.00
2023-03-22T00:30:56.406Z,8.43
2023-03-22T00:31:38.225Z,8.40
2023-03-22T00:32:20.046Z,8.80
2023-03-22T00:33:02.064Z,8.60
2023-03-22T00:33:44.164Z,8.52
2023-03-22T00:34:27.131Z,8.35
2023-03-22T00:35:09.906Z,8.05
2023-03-22T00:35:54.263Z,7.80
2023-03-22T00:36:37.893Z,8.60
2023-03-22T00:37:22.233Z,8.68
2023-03-22T00:38:06.083Z,8.15
2023-03-22T00:38:49.968Z,8.15
2023-03-22T00:39:32.191Z,8.70
2023-03-22T00:40:18.362Z,8.30
2023-03-22T00:41:10.403Z,8.80
2023-03-22T00:41:52.254Z,8.00
2023-03-22T00:42:34.235Z,8.32
2023-03-22T00:43:16.929Z,8.10
2023-03-22T00:43:58.846Z,8.52
2023-03-22T00:44:40.995Z,8.10
2023-03-22T00:45:24.958Z,7.78
2023-03-22T00:46:07.042Z,8.32
2023-03-22T00:46:49.302Z,8.20
2023-03-22T00:47:31.276Z,8.52
2023-03-22T00:48:15.896Z,8.30
2023-03-22T00:48:59.925Z,9.43
2023-03-22T00:49:41.692Z,9.00
2023-03-22T00:50:23.461Z,8.80
2023-03-22T00:51:06.052Z,8.45
2023-03-22T00:51:47.954Z,8.50
2023-03-22T00:52:30.126Z,8.73
2023-03-22T00:53:11.919Z,8.55
2023-03-22T00:53:54.796Z,8.68
2023-03-22T00:54:36.774Z,8.82
2023-03-22T00:55:18.585Z,9.07
2023-03-22T00:56:00.616Z,8.82
2023-03-22T00:56:45.469Z,9.00
2023-03-22T00:57:27.298Z,8.57
2023-03-22T00:58:09.091Z,8.80
2023-03-22T00:58:51.170Z,8.93
2023-03-22T00:59:37.646Z,8.60
2023-03-22T01:00:19.518Z,8.70
2023-03-22T01:01:01.830Z,9.10
2023-03-22T01:01:46.305Z,9.18
2023-03-22T01:02:29.781Z,9.40
2023-03-22T01:03:14.266Z,9.20
2023-03-22T01:03:56.352Z,9.30
2023-03-22T01:04:40.315Z,9.40
2023-03-22T01:05:22.253Z,8.85
2023-03-22T01:06:04.351Z,9.30
2023-03-22T01:06:47.224Z,9.05
2023-03-22T01:07:29.463Z,8.85
2023-03-22T01:08:12.894Z,9.18
2023-03-22T01:08:55.309Z,10.07
2023-03-22T01:09:37.316Z,8.52
2023-03-22T01:10:19.526Z,8.70
2023-03-22T01:11:01.691Z,9.20
2023-03-22T01:11:44.373Z,9.30
2023-03-22T01:12:27.205Z,8.60
2023-03-22T01:13:10.826Z,9.10
2023-03-22T01:13:54.811Z,9.63
2023-03-22T01:14:37.040Z,9.20
2023-03-22T01:15:19.388Z,8.73
2023-03-22T01:16:01.405Z,9.15
2023-03-22T01:16:45.778Z,8.75
2023-03-22T01:17:27.828Z,9.32
2023-03-22T01:18:12.543Z,8.90
2023-03-22T01:18:54.317Z,8.75
2023-03-22T01:19:37.455Z,9.50
2023-03-22T01:20:19.478Z,8.95
2023-03-22T01:21:01.746Z,8.95
2023-03-22T01:21:43.555Z,9.23
2023-03-22T01:22:25.399Z,8.95
2023-03-22T01:23:07.174Z,8.85
2023-03-22T01:23:49.006Z,9.30
2023-03-22T01:24:31.303Z,9.30
2023-03-22T01:25:13.462Z,9.30
2023-03-22T01:25:55.404Z,8.68
2023-03-22T01:26:38.795Z,8.95
2023-03-22T01:27:20.838Z,9.20
2023-03-22T01:28:02.944Z,8.68
2023-03-22T01:28:44.905Z,8.80
2023-03-22T01:29:27.384Z,9.05
2023-03-22T01:30:10.754Z,9.77
2023-03-22T01:30:52.821Z,9.30
2023-03-22T01:31:37.436Z,9.07
2023-03-22T01:32:19.585Z,9.30
2023-03-22T01:33:01.409Z,9.63
2023-03-22T01:33:45.286Z,9.50
2023-03-22T01:34:27.538Z,9.40
2023-03-22T01:35:10.157Z,8.93
2023-03-22T01:35:52.028Z,8.88
2023-03-22T01:36:33.847Z,8.45
2023-03-22T01:37:16.031Z,9.13
2023-03-22T01:37:57.958Z,9.50
2023-03-22T01:38:42.716Z,9.15
2023-03-22T01:39:24.691Z,8.75
2023-03-22T01:40:07.386Z,9.23
2023-03-22T01:40:49.644Z,9.73
2023-03-22T01:41:35.056Z,9.20
2023-03-22T01:42:20.287Z,9.40
2023-03-22T01:43:02.210Z,9.38
2023-03-22T01:43:46.681Z,9.68
2023-03-22T01:44:30.801Z,9.50
2023-03-22T01:45:15.836Z,8.88
2023-03-22T01:45:58.003Z,9.55
2023-03-22T01:46:41.537Z,9.70
2023-03-22T01:47:25.444Z,9.50
2023-03-22T01:48:15.706Z,9.70
2023-03-22T01:48:57.879Z,8.90
2023-03-22T01:49:40.874Z,9.13
2023-03-22T01:50:24.464Z,9.25
2023-03-22T01:51:25.506Z,8.32
2023-03-22T01:52:12.603Z,8.88
2023-03-22T01:52:57.197Z,8.95
2023-03-22T01:53:48.112Z,9.57
2023-03-22T01:54:43.043Z,8.73
2023-03-22T01:55:26.440Z,9.30
2023-03-22T01:56:09.643Z,9.05
2023-03-22T01:56:51.771Z,9.10
2023-03-22T01:57:37.561Z,9.68
2023-03-22T01:58:22.430Z,9.15
2023-03-22T01:59:07.746Z,9.23
2023-03-22T01:59:50.450Z,8.90
2023-03-22T02:00:33.771Z,8.32
2023-03-22T02:01:16.468Z,9.00
2023-03-22T02:02:03.023Z,8.65
2023-03-22T02:02:50.471Z,9.10
2023-03-22T02:03:55.801Z,9.20
2023-03-22T02:04:41.583Z,9.15
2023-03-22T02:05:25.605Z,9.63
2023-03-22T02:06:07.900Z,9.27
2023-03-22T02:06:54.696Z,9.40
2023-03-22T02:07:40.818Z,8.85
2023-03-22T02:08:22.739Z,9.40
2023-03-22T02:09:08.231Z,9.00
2023-03-22T02:09:52.559Z,9.13
2023-03-22T02:10:34.757Z,8.57
2023-03-22T02:11:33.964Z,9.10
2023-03-22T02:12:36.917Z,8.60
2023-03-22T02:13:56.178Z,9.20
2023-03-22T02:14:52.828Z,8.98
2023-03-22T02:15:51.826Z,10.40
2023-03-22T02:17:00.744Z,9.30
2023-03-22T02:18:27.143Z,9.48
2023-03-22T02:19:54.232Z,10.15
2023-03-22T02:20:40.038Z,9.55
2023-03-22T02:21:45.973Z,9.18
2023-03-22T02:22:32.612Z,8.82
2023-03-22T02:23:26.120Z,9.23
2023-03-22T02:24:28.963Z,9.13
2023-03-22T02:25:41.360Z,9.40
2023-03-22T02:26:50.253Z,9.30
2023-03-22T02:27:53.329Z,9.80
2023-03-22T02:28:41.722Z,9.30
2023-03-22T02:29:45.252Z,9.23
2023-03-22T02:30:56.174Z,9.23
2023-03-22T02:32:09.994Z,9.00
2023-03-22T02:33:18.827Z,9.10
2023-03-22T02:34:19.981Z,8.85
2023-03-22T02:35:41.501Z,9.68
2023-03-22T02:37:04.120Z,8.90
2023-03-22T02:37:57.328Z,8.88
2023-03-22T02:38:57.753Z,8.07
2023-03-22T02:39:51.382Z,8.00
2023-03-22T02:40:40.596Z,8.82
2023-03-22T02:41:45.414Z,8.77
2023-03-22T02:42:40.006Z,9.30
2023-03-22T02:43:55.392Z,8.40
2023-03-22T02:44:40.228Z,7.50
2023-03-22T02:45:32.282Z,7.97
2023-03-22T02:46:33.550Z,8.18
2023-03-22T02:47:41.456Z,7.63
2023-03-22T02:48:41.994Z,8.38
2023-03-22T02:49:48.061Z,7.80
2023-03-22T02:50:38.611Z,7.35
2023-03-22T02:51:31.888Z,8.60
2023-03-22T02:52:31.810Z,8.25
2023-03-22T02:53:42.313Z,8.25
2023-03-22T02:54:37.686Z,8.63
2023-03-22T02:55:38.088Z,8.27
2023-03-22T02:56:30.464Z,7.60
2023-03-22T02:57:18.322Z,8.65
2023-03-22T02:58:07.223Z,8.43
2023-03-22T02:58:53.414Z,8.43
2023-03-22T02:59:38.437Z,10.32
2023-03-22T03:00:21.061Z,9.77
2023-03-22T03:01:11.289Z,10.63
2023-03-22T03:01:56.614Z,9.88
2023-03-22T03:02:44.115Z,9.90
2023-03-22T03:03:30.104Z,9.90
2023-03-22T03:04:23.405Z,10.57
2023-03-22T03:05:06.576Z,10.10
2023-03-22T03:05:54.386Z,10.55
2023-03-22T03:06:42.831Z,10.60
2023-03-22T03:07:29.836Z,10.02
2023-03-22T03:08:13.502Z,10.80
2023-03-22T03:08:58.099Z,10.68
2023-03-22T03:09:42.382Z,11.30
2023-03-22T03:10:25.736Z,11.82
2023-03-22T03:11:07.780Z,10.68
2023-03-22T03:11:52.166Z,11.35
2023-03-22T03:12:34.233Z,10.30
2023-03-22T03:13:19.855Z,10.27
2023-03-22T03:14:02.068Z,11.10
2023-03-22T03:14:44.237Z,10.75
2023-03-22T03:15:26.821Z,9.93
2023-03-22T03:16:17.511Z,11.65
2023-03-22T03:17:12.519Z,10.35
2023-03-22T03:17:57.166Z,10.82
2023-03-22T03:19:09.035Z,10.27
2023-03-22T03:20:20.163Z,10.50
2023-03-22T03:21:20.663Z,10.57
2023-03-22T03:22:27.450Z,10.57
2023-03-22T03:23:40.102Z,10.63
2023-03-22T03:24:45.410Z,10.43
2023-03-22T03:25:50.244Z,10.52
2023-03-22T03:27:07.239Z,11.10
2023-03-22T03:28:17.899Z,11.02
2023-03-22T03:29:32.412Z,10.70
2023-03-22T03:30:28.506Z,10.90
2023-03-22T03:31:10.326Z,11.10
2023-03-22T03:32:01.932Z,10.98
2023-03-22T03:32:52.593Z,9.88
2023-03-22T03:33:37.595Z,9.65
2023-03-22T03:34:27.861Z,9.27
2023-03-22T03:35:38.423Z,9.93
2023-03-22T03:36:22.094Z,9.02
2023-03-22T03:37:08.489Z,9.23
2023-03-22T03:37:59.273Z,8.30
2023-03-22T03:38:47.671Z,8.65
2023-03-22T03:39:33.543Z,9.70
2023-03-22T03:40:32.536Z,10.10
2023-03-22T03:41:20.526Z,9.20
2023-03-22T03:42:06.115Z,10.30
2023-03-22T03:42:52.084Z,10.35
2023-03-22T03:43:35.360Z,10.80
2023-03-22T03:44:19.336Z,10.07
2023-03-22T03:45:01.739Z,10.25
2023-03-22T03:45:44.416Z,10.05
2023-03-22T03:46:29.031Z,10.80
2023-03-22T03:47:12.701Z,10.93
2023-03-22T03:47:59.420Z,10.40
2023-03-22T03:48:45.325Z,11.20
2023-03-22T03:49:27.322Z,10.90
2023-03-22T03:50:11.537Z,11.13
2023-03-22T03:50:58.537Z,10.85
2023-03-22T03:51:52.353Z,10.23
2023-03-22T03:52:34.633Z,10.82
2023-03-22T03:53:17.236Z,11.05
2023-03-22T03:53:59.394Z,10.25
2023-03-22T03:54:41.485Z,9.40
2023-03-22T03:55:24.603Z,9.80
2023-03-22T03:56:07.249Z,9.13
2023-03-22T03:56:49.890Z,10.10
2023-03-22T03:57:32.325Z,9.48
2023-03-22T03:58:16.713Z,8.88
2023-03-22T03:58:58.565Z,8.63
2023-03-22T03:59:40.434Z,8.90
2023-03-22T04:00:22.460Z,8.93
2023-03-22T04:01:07.445Z,8.65
2023-03-22T04:01:52.757Z,9.13
2023-03-22T04:02:37.370Z,9.13
2023-03-22T04:03:19.348Z,8.50
2023-03-22T04:04:01.484Z,8.00
2023-03-22T04:04:45.611Z,8.90
2023-03-22T04:05:27.419Z,9.18
2023-03-22T04:06:09.483Z,9.82
2023-03-22T04:06:55.129Z,9.73
2023-03-22T04:07:37.381Z,9.00
2023-03-22T04:08:19.484Z,9.80
2023-03-22T04:09:01.742Z,10.82
2023-03-22T04:09:43.547Z,9.65
2023-03-22T04:10:25.458Z,9.13
2023-03-22T04:11:07.759Z,9.55
2023-03-22T04:11:49.902Z,8.85
2023-03-22T04:12:32.542Z,8.20
2023-03-22T04:13:14.543Z,9.13
2023-03-22T04:13:56.592Z,9.95
2023-03-22T04:14:38.438Z,9.95
2023-03-22T04:15:22.290Z,9.93
2023-03-22T04:16:04.535Z,9.00
2023-03-22T04:16:46.845Z,9.38
2023-03-22T04:17:29.235Z,9.00
2023-03-22T04:18:11.411Z,9.13
2023-03-22T04:18:53.376Z,9.18
2023-03-22T04:19:35.441Z,8.75
2023-03-22T04:20:17.828Z,9.20
2023-03-22T04:21:02.348Z,8.60
2023-03-22T04:21:44.627Z,8.48
2023-03-22T04:22:26.762Z,9.05
2023-03-22T04:23:11.274Z,9.25
2023-03-22T04:23:53.526Z,9.30
2023-03-22T04:24:37.895Z,9.30
2023-03-22T04:25:22.736Z,9.63
2023-03-22T04:26:05.871Z,8.93
2023-03-22T04:26:50.637Z,8.27
2023-03-22T04:27:32.826Z,9.45
2023-03-22T04:28:14.987Z,9.73
2023-03-22T04:28:58.557Z,9.20
2023-03-22T04:29:40.522Z,9.25
2023-03-22T04:30:22.919Z,9.15
2023-03-22T04:31:07.496Z,9.70
2023-03-22T04:31:49.669Z,8.73
2023-03-22T04:32:31.802Z,9.82
2023-03-22T04:33:17.341Z,9.20
2023-03-22T04:34:07.517Z,9.45
2023-03-22T04:34:52.894Z,9.07
2023-03-22T04:35:37.494Z,8.38
2023-03-22T04:36:19.761Z,9.23
2023-03-22T04:37:02.531Z,8.90
2023-03-22T04:37:45.704Z,9.20
2023-03-22T04:38:27.523Z,9.55
2023-03-22T04:39:11.660Z,10.00
2023-03-22T04:39:53.833Z,9.02
2023-03-22T04:40:41.142Z,9.35
2023-03-22T04:41:25.514Z,9.85
2023-03-22T04:42:07.847Z,9.70
2023-03-22T04:42:53.773Z,8.93
2023-03-22T04:43:35.697Z,8.95
2023-03-22T04:44:17.548Z,9.93
2023-03-22T04:45:02.804Z,9.23
2023-03-22T04:45:46.136Z,8.65
2023-03-22T04:46:28.093Z,9.05
2023-03-22T04:47:12.690Z,8.88
2023-03-22T04:47:54.912Z,9.27
2023-03-22T04:48:39.191Z,8.43
2023-03-22T04:49:21.007Z,8.30
2023-03-22T04:50:03.118Z,8.60
2023-03-22T04:50:45.619Z,8.00
2023-03-22T04:51:30.791Z,7.72
2023-03-22T04:52:12.608Z,8.55
2023-03-22T04:52:54.496Z,8.88
2023-03-22T04:53:39.666Z,7.78
2023-03-22T04:54:22.993Z,7.82
2023-03-22T04:55:07.791Z,8.55
2023-03-22T04:55:53.058Z,8.38
2023-03-22T04:56:37.614Z,7.78
2023-03-22T04:57:19.776Z,7.70
2023-03-22T04:58:01.729Z,8.05
2023-03-22T04:58:44.784Z,8.15
2023-03-22T04:59:26.830Z,7.90
2023-03-22T05:00:09.970Z,7.97
2023-03-22T05:00:55.625Z,9.05
2023-03-22T05:01:37.713Z,8.98
2023-03-22T05:02:19.604Z,8.73
2023-03-22T05:03:01.923Z,8.60
2023-03-22T05:03:45.674Z,8.68
2023-03-22T05:04:28.093Z,8.80
2023-03-22T05:05:12.545Z,9.68
2023-03-22T05:05:57.147Z,9.30
2023-03-22T05:06:39.032Z,9.65
2023-03-22T05:07:21.672Z,10.27
2023-03-22T05:08:05.629Z,10.57
2023-03-22T05:08:47.653Z,10.20
2023-03-22T05:09:29.862Z,10.95
2023-03-22T05:10:12.133Z,10.60
2023-03-22T05:10:58.465Z,10.23
2023-03-22T05:11:40.770Z,10.23
2023-03-22T05:12:22.642Z,10.32
2023-03-22T05:13:04.420Z,11.40
2023-03-22T05:13:46.648Z,11.88
2023-03-22T05:14:30.775Z,11.98
2023-03-22T05:15:13.039Z,11.65
2023-03-22T05:15:54.934Z,11.85
2023-03-22T05:16:43.060Z,11.20
2023-03-22T05:17:27.702Z,10.63
2023-03-22T05:18:09.970Z,11.23
2023-03-22T05:18:54.507Z,11.73
2023-03-22T05:19:36.883Z,11.20
2023-03-22T05:20:21.060Z,11.82
2023-03-22T05:21:03.918Z,12.00
2023-03-22T05:21:46.280Z,11.82
2023-03-22T05:22:29.764Z,11.98
2023-03-22T05:23:11.906Z,11.70
2023-03-22T05:23:57.731Z,12.05
2023-03-22T05:24:39.856Z,12.07
2023-03-22T05:25:21.663Z,11.50
2023-03-22T05:26:04.288Z,12.38
2023-03-22T05:26:46.110Z,12.52
2023-03-22T05:27:33.777Z,13.35
2023-03-22T05:28:16.084Z,12.68
2023-03-22T05:28:58.157Z,11.65
2023-03-22T05:29:44.937Z,12.48
2023-03-22T05:30:27.657Z,12.00
2023-03-22T05:31:11.009Z,12.07
2023-03-22T05:31:53.344Z,12.88
2023-03-22T05:32:37.610Z,11.80
2023-03-22T05:33:22.996Z,12.57
2023-03-22T05:34:05.075Z,12.00
2023-03-22T05:34:50.509Z,12.60
2023-03-22T05:35:36.148Z,12.52
2023-03-22T05:36:22.674Z,12.55
2023-03-22T05:37:04.655Z,12.07
2023-03-22T05:37:46.699Z,11.65
2023-03-22T05:38:31.174Z,11.25
2023-03-22T05:39:15.913Z,10.93
2023-03-22T05:39:57.785Z,10.77
2023-03-22T05:40:40.171Z,11.23
2023-03-22T05:41:22.692Z,11.32
2023-03-22T05:42:06.636Z,10.57
2023-03-22T05:42:50.713Z,10.77
2023-03-22T05:43:32.928Z,10.63
2023-03-22T05:44:17.146Z,11.23
2023-03-22T05:44:58.999Z,10.57
2023-03-22T05:45:41.114Z,10.10
2023-03-22T05:46:23.018Z,10.50
2023-03-22T05:47:06.935Z,10.10
2023-03-22T05:47:51.872Z,9.75
2023-03-22T05:48:33.931Z,10.55
2023-03-22T05:49:16.077Z,10.27
2023-03-22T05:49:57.893Z,10.15
2023-03-22T05:50:40.170Z,9.90
2023-03-22T05:51:25.766Z,10.38
2023-03-22T05:52:07.626Z,10.52
2023-03-22T05:52:49.931Z,10.68
2023-03-22T05:53:33.046Z,10.90
2023-03-22T05:54:15.043Z,11.23
2023-03-22T05:54:57.159Z,10.77
2023-03-22T05:55:39.003Z,11.60
2023-03-22T05:56:24.665Z,11.10
2023-03-22T05:57:06.893Z,10.70
2023-03-22T05:57:51.471Z,10.80
2023-03-22T05:58:33.934Z,9.85
2023-03-22T05:59:16.764Z,10.07
2023-03-22T06:00:01.053Z,10.35
2023-03-22T06:00:43.225Z,11.40
2023-03-22T06:01:25.551Z,11.35
2023-03-22T06:02:07.525Z,10.52
2023-03-22T06:02:52.452Z,11.48
2023-03-22T06:03:34.540Z,10.65
2023-03-22T06:04:16.774Z,11.15
2023-03-22T06:05:01.150Z,11.77
2023-03-22T06:05:42.979Z,10.60
2023-03-22T06:06:28.066Z,10.80
2023-03-22T06:07:10.118Z,11.13
2023-03-22T06:07:51.998Z,11.23
2023-03-22T06:08:34.202Z,11.10
2023-03-22T06:09:17.832Z,11.73
2023-03-22T06:10:00.165Z,11.70
2023-03-22T06:10:42.495Z,11.43
2023-03-22T06:11:27.033Z,11.13
2023-03-22T06:12:08.878Z,10.60
2023-03-22T06:12:51.113Z,12.20
2023-03-22T06:13:33.463Z,11.90
2023-03-22T06:14:16.110Z,11.80
2023-03-22T06:14:57.915Z,11.40
2023-03-22T06:15:42.111Z,11.63
2023-03-22T06:16:26.377Z,11.30
2023-03-22T06:17:10.134Z,11.60
2023-03-22T06:17:51.998Z,12.10
2023-03-22T06:18:36.281Z,12.55
2023-03-22T06:19:18.090Z,12.15
2023-03-22T06:20:00.412Z,11.00
2023-03-22T06:20:42.776Z,11.20
2023-03-22T06:21:25.138Z,11.13
2023-03-22T06:22:06.976Z,11.38
2023-03-22T06:22:50.976Z,11.13
2023-03-22T06:23:32.787Z,10.70
2023-03-22T06:24:14.673Z,10.63
2023-03-22T06:24:57.124Z,10.38
2023-03-22T06:25:39.013Z,11.18
2023-03-22T06:26:21.173Z,10.50
2023-03-22T06:27:03.128Z,10.23
2023-03-22T06:27:45.286Z,10.88
2023-03-22T06:28:32.091Z,10.20
2023-03-22T06:29:16.285Z,11.00
2023-03-22T06:29:58.253Z,11.05
2023-03-22T06:30:40.476Z,10.68
2023-03-22T06:31:22.687Z,10.70
2023-03-22T06:32:04.632Z,10.20
2023-03-22T06:32:46.570Z,9.65
2023-03-22T06:33:28.477Z,10.20
2023-03-22T06:34:10.444Z,9.98
2023-03-22T06:34:55.682Z,10.50
2023-03-22T06:35:37.778Z,9.95
2023-03-22T06:36:19.582Z,9.85
2023-03-22T06:37:01.990Z,10.40
2023-03-22T06:37:46.158Z,9.90
2023-03-22T06:38:31.540Z,10.93
2023-03-22T06:39:13.360Z,9.90
2023-03-22T06:39:55.180Z,10.00
2023-03-22T06:40:37.275Z,10.60
2023-03-22T06:41:21.663Z,9.48
2023-03-22T06:42:03.540Z,10.70
2023-03-22T06:42:46.189Z,9.98
2023-03-22T06:43:28.017Z,9.63
2023-03-22T06:44:10.021Z,9.35
2023-03-22T06:44:51.817Z,9.02
2023-03-22T06:45:33.646Z,9.10
2023-03-22T06:46:16.436Z,9.57
2023-03-22T06:46:58.253Z,9.70
2023-03-22T06:47:40.706Z,10.05
2023-03-22T06:48:23.149Z,9.40
2023-03-22T06:49:06.306Z,8.40
2023-03-22T06:49:48.226Z,8.95
2023-03-22T06:50:30.293Z,9.52
2023-03-22T06:51:12.292Z,9.20
2023-03-22T06:51:54.453Z,9.15
2023-03-22T06:52:36.847Z,8.52
2023-03-22T06:53:18.736Z,8.27
2023-03-22T06:54:01.450Z,8.55
2023-03-22T06:54:43.237Z,8.20
2023-03-22T06:55:27.626Z,8.48
2023-03-22T06:56:09.594Z,9.00
2023-03-22T06:56:51.375Z,9.30
2023-03-22T06:57:33.157Z,8.48
2023-03-22T06:58:15.392Z,9.00
2023-03-22T06:58:58.446Z,8.27
2023-03-22T06:59:40.648Z,8.20
2023-03-22T07:00:22.888Z,7.93
2023-03-22T07:01:05.370Z,8.23
2023-03-22T07:01:48.322Z,7.75
2023-03-22T07:02:30.616Z,8.60
2023-03-22T07:03:12.387Z,8.70
2023-03-22T07:03:56.502Z,8.02
2023-03-22T07:04:38.450Z,8.45
2023-03-22T07:05:21.421Z,8.30
2023-03-22T07:06:08.502Z,7.50
2023-03-22T07:06:50.675Z,8.00
2023-03-22T07:07:32.726Z,8.65
2023-03-22T07:08:14.525Z,8.13
2023-03-22T07:08:56.453Z,7.50
2023-03-22T07:09:39.582Z,7.60
2023-03-22T07:10:21.484Z,7.95
2023-03-22T07:11:04.572Z,7.80
2023-03-22T07:11:46.493Z,8.00
2023-03-22T07:12:28.273Z,8.15
2023-03-22T07:13:10.562Z,7.90
2023-03-22T07:13:54.563Z,7.00
2023-03-22T07:14:36.515Z,8.38
2023-03-22T07:15:22.511Z,8.27
2023-03-22T07:16:04.562Z,8.15
2023-03-22T07:16:46.580Z,8.10
2023-03-22T07:17:28.386Z,7.72
2023-03-22T07:18:10.573Z,8.40
2023-03-22T07:18:52.488Z,7.93
2023-03-22T07:19:34.836Z,7.57
2023-03-22T07:20:17.362Z,7.50
2023-03-22T07:21:01.471Z,7.47
2023-03-22T07:21:43.295Z,7.60
2023-03-22T07:22:25.888Z,8.30
2023-03-22T07:23:10.739Z,7.47
2023-03-22T07:23:52.590Z,7.60
2023-03-22T07:24:36.037Z,7.80
2023-03-22T07:25:19.660Z,7.57
2023-03-22T07:26:01.525Z,7.70
2023-03-22T07:26:43.806Z,7.30
2023-03-22T07:27:26.062Z,7.30
2023-03-22T07:28:08.047Z,7.40
2023-03-22T07:28:49.858Z,6.53
2023-03-22T07:29:31.973Z,6.63
2023-03-22T07:30:14.276Z,6.82
2023-03-22T07:31:05.518Z,6.30
2023-03-22T07:31:47.429Z,6.63
2023-03-22T07:32:29.377Z,6.53
2023-03-22T07:33:11.741Z,5.65
2023-03-22T07:33:53.570Z,5.85
2023-03-22T07:34:35.704Z,5.75
2023-03-22T07:35:18.765Z,5.35
2023-03-22T07:36:00.789Z,5.50
2023-03-22T07:36:42.764Z,5.70
2023-03-22T07:37:24.632Z,5.45
2023-03-22T07:38:06.979Z,4.90
2023-03-22T07:38:48.745Z,5.20
2023-03-22T07:39:33.531Z,5.72
2023-03-22T07:40:15.729Z,5.88
2023-03-22T07:40:57.552Z,5.13
2023-03-22T07:41:42.509Z,4.80
2023-03-22T07:42:26.644Z,5.60
2023-03-22T07:43:08.457Z,5.13
2023-03-22T07:43:56.857Z,5.53
2023-03-22T07:44:42.197Z,4.88
2023-03-22T07:45:24.104Z,4.80
2023-03-22T07:46:06.180Z,5.05
2023-03-22T07:46:48.305Z,4.90
2023-03-22T07:47:40.905Z,4.80
2023-03-22T07:48:24.059Z,4.25
2023-03-22T07:49:06.206Z,4.50
2023-03-22T07:49:48.183Z,5.10
2023-03-22T07:50:30.061Z,4.32
2023-03-22T07:51:12.307Z,5.03
2023-03-22T07:51:54.127Z,5.05
2023-03-22T07:52:36.756Z,4.80
2023-03-22T07:53:18.488Z,4.88
2023-03-22T07:54:01.914Z,4.32
2023-03-22T07:54:43.770Z,4.95
2023-03-22T07:55:25.766Z,4.97
2023-03-22T07:56:07.969Z,5.20
2023-03-22T07:56:50.158Z,5.28
2023-03-22T07:57:32.204Z,5.40
2023-03-22T07:58:14.984Z,5.80
2023-03-22T07:58:57.070Z,5.20
2023-03-22T07:59:40.194Z,5.25
2023-03-22T08:00:23.070Z,5.45
2023-03-22T08:01:09.017Z,4.70
2023-03-22T08:01:51.155Z,4.22
2023-03-22T08:02:33.272Z,3.70
2023-03-22T08:03:15.679Z,3.35
2023-03-22T08:03:57.644Z,3.40
2023-03-22T08:04:39.461Z,3.63
2023-03-22T08:05:22.610Z,3.55
2023-03-22T08:06:08.157Z,3.35
2023-03-22T08:06:51.448Z,2.90
2023-03-22T08:07:33.425Z,3.33
2023-03-22T08:08:15.716Z,3.13
2023-03-22T08:08:57.680Z,2.97
2023-03-22T08:09:39.760Z,3.03
2023-03-22T08:10:21.711Z,2.80
2023-03-22T08:11:04.886Z,2.63
2023-03-22T08:11:49.238Z,2.78
2023-03-22T08:12:32.589Z,3.33
2023-03-22T08:13:14.749Z,3.00
2023-03-22T08:13:58.922Z,3.10
2023-03-22T08:14:40.801Z,2.67
2023-03-22T08:15:23.428Z,2.92
2023-03-22T08:16:09.247Z,3.35
2023-03-22T08:16:51.241Z,3.08
2023-03-22T08:17:36.059Z,2.85
2023-03-22T08:18:17.850Z,2.30
2023-03-22T08:18:59.850Z,2.80
2023-03-22T08:19:43.975Z,2.50
2023-03-22T08:20:27.357Z,2.60
2023-03-22T08:21:09.499Z,2.50
2023-03-22T08:21:51.471Z,2.65
2023-03-22T08:22:33.350Z,2.60
2023-03-22T08:23:16.321Z,2.70
2023-03-22T08:23:58.311Z,2.58
2023-03-22T08:24:40.678Z,2.53
2023-03-22T08:25:25.574Z,2.70
2023-03-22T08:26:07.644Z,2.70
2023-03-22T08:26:51.056Z,2.60
2023-03-22T08:27:32.913Z,2.10
2023-03-22T08:28:15.890Z,2.50
2023-03-22T08:28:58.414Z,2.70
2023-03-22T08:29:41.351Z,2.15
2023-03-22T08:30:23.409Z,1.90
2023-03-22T08:31:17.104Z,2.00
2023-03-22T08:32:02.267Z,2.10
2023-03-22T08:32:44.217Z,2.20
2023-03-22T08:33:26.447Z,2.08
2023-03-22T08:34:11.353Z,2.25
2023-03-22T08:34:53.441Z,1.70
2023-03-22T08:35:35.454Z,2.10
2023-03-22T08:36:22.715Z,2.40
2023-03-22T08:37:06.207Z,2.00
2023-03-22T08:37:48.320Z,1.95
2023-03-22T08:38:30.938Z,2.08
2023-03-22T08:39:13.164Z,2.15
2023-03-22T08:39:55.361Z,2.30
2023-03-22T08:40:37.216Z,2.10
2023-03-22T08:41:19.111Z,2.40
2023-03-22T08:42:01.214Z,2.20
2023-03-22T08:42:43.053Z,2.10
2023-03-22T08:43:24.995Z,2.03
2023-03-22T08:44:07.075Z,1.90
2023-03-22T08:44:49.308Z,2.05
2023-03-22T08:45:31.304Z,2.00
2023-03-22T08:46:13.134Z,2.50
2023-03-22T08:46:55.792Z,2.20
2023-03-22T08:47:37.869Z,1.90
2023-03-22T08:48:20.127Z,2.10
2023-03-22T08:49:02.925Z,2.45
2023-03-22T08:49:45.135Z,2.00
2023-03-22T08:50:27.143Z,1.70
2023-03-22T08:51:11.069Z,1.90
2023-03-22T08:51:53.190Z,1.70
2023-03-22T08:52:35.927Z,1.80
2023-03-22T08:53:18.015Z,2.00
2023-03-22T08:54:04.152Z,1.95
2023-03-22T08:54:46.393Z,1.70
2023-03-22T08:55:28.404Z,1.60
2023-03-22T08:56:11.428Z,1.73
2023-03-22T08:56:55.853Z,1.63
2023-03-22T08:57:38.974Z,1.67
2023-03-22T08:58:20.817Z,2.00
2023-03-22T08:59:02.961Z,1.63
2023-03-22T08:59:45.273Z,1.67
2023-03-22T09:00:32.001Z,1.90
2023-03-22T09:01:21.296Z,2.05
2023-03-22T09:02:03.563Z,1.75
2023-03-22T09:02:45.734Z,1.90
2023-03-22T09:03:28.025Z,1.53
2023-03-22T09:04:10.886Z,1.60
2023-03-22T09:04:53.131Z,2.00
2023-03-22T09:05:35.027Z,1.92
2023-03-22T09:06:16.943Z,2.40
2023-03-22T09:06:58.749Z,1.92
2023-03-22T09:07:41.591Z,1.50
2023-03-22T09:08:23.554Z,1.60
2023-03-22T09:09:05.906Z,1.73
2023-03-22T09:09:47.842Z,1.80
2023-03-22T09:10:30.002Z,1.70
2023-03-22T09:11:12.465Z,1.60
2023-03-22T09:11:54.307Z,1.80
2023-03-22T09:12:36.928Z,1.73
2023-03-22T09:13:19.184Z,2.05
2023-03-22T09:14:01.038Z,1.98
2023-03-22T09:14:43.701Z,1.50
2023-03-22T09:15:25.944Z,2.10
2023-03-22T09:16:10.992Z,2.10
2023-03-22T09:16:53.060Z,1.75
2023-03-22T09:17:35.193Z,1.48
2023-03-22T09:18:17.049Z,1.70
2023-03-22T09:19:00.947Z,1.60
2023-03-22T09:19:46.021Z,1.80
2023-03-22T09:20:28.127Z,1.60
2023-03-22T09:21:10.756Z,1.60
2023-03-22T09:21:52.680Z,1.77
2023-03-22T09:22:34.516Z,1.77
2023-03-22T09:23:18.960Z,1.48
2023-03-22T09:24:00.991Z,1.50
2023-03-22T09:24:42.959Z,1.50
2023-03-22T09:25:25.556Z,1.48
2023-03-22T09:26:09.157Z,1.80
2023-03-22T09:26:51.384Z,1.70
2023-03-22T09:27:33.635Z,1.70
2023-03-22T09:28:17.178Z,1.98
2023-03-22T09:28:59.031Z,1.67
2023-03-22T09:29:41.376Z,1.70
2023-03-22T09:30:26.428Z,1.90
2023-03-22T09:31:10.025Z,2.03
2023-03-22T09:31:51.992Z,1.80
2023-03-22T09:32:34.583Z,1.90
2023-03-22T09:33:16.568Z,1.50
2023-03-22T09:33:58.663Z,1.60
2023-03-22T09:34:40.725Z,1.60
2023-03-22T09:35:22.978Z,1.83
2023-03-22T09:36:05.644Z,1.83
2023-03-22T09:36:47.595Z,1.35
2023-03-22T09:37:30.394Z,1.50
2023-03-22T09:38:12.629Z,1.50
2023-03-22T09:38:54.445Z,1.50
2023-03-22T09:39:38.440Z,1.70
2023-03-22T09:40:24.436Z,2.20
2023-03-22T09:41:18.599Z,1.90
2023-03-22T09:42:04.215Z,1.63
2023-03-22T09:42:52.357Z,1.63
2023-03-22T09:43:38.831Z,1.33
2023-03-22T09:44:34.483Z,1.60
2023-03-22T09:45:27.275Z,1.30
2023-03-22T09:46:26.726Z,1.30
2023-03-22T09:47:16.545Z,1.58
2023-03-22T09:48:02.039Z,1.60
2023-03-22T09:48:48.237Z,1.70
2023-03-22T09:49:52.727Z,1.40
2023-03-22T09:50:43.809Z,1.90
2023-03-22T09:51:45.790Z,1.60
2023-03-22T09:52:27.673Z,1.80
2023-03-22T09:53:13.791Z,1.45
2023-03-22T09:53:56.100Z,1.45